createdAt,value
2022-09-06T00:00:38.289Z,9.63
2022-09-06T00:01:43.558Z,9.62
2022-09-06T00:02:47.703Z,9.57
2022-09-06T00:03:51.924Z,9.60
2022-09-06T00:04:56.017Z,9.51
2022-09-06T00:06:00.039Z,9.54
2022-09-06T00:07:04.135Z,9.59
2022-09-06T00:08:09.688Z,9.59
2022-09-06T00:09:16.334Z,9.56
2022-09-06T00:10:22.091Z,9.51
2022-09-06T00:11:26.191Z,9.52
2022-09-06T00:12:32.504Z,9.52
2022-09-06T00:13:36.694Z,9.51
2022-09-06T00:14:40.781Z,9.48
2022-09-06T00:15:44.878Z,9.46
2022-09-06T00:16:49.239Z,9.48
2022-09-06T00:17:55.742Z,9.49
2022-09-06T00:18:59.387Z,9.46
2022-09-06T00:20:04.681Z,9.46
2022-09-06T00:21:14.213Z,9.41
2022-09-06T00:22:19.910Z,9.38
2022-09-06T00:23:24.015Z,9.40
2022-09-06T00:24:28.119Z,9.41
2022-09-06T00:25:33.496Z,9.41
2022-09-06T00:26:37.428Z,9.38
2022-09-06T00:27:41.362Z,9.41
2022-09-06T00:28:47.385Z,9.41
2022-09-06T00:29:51.419Z,9.41
2022-09-06T00:30:57.186Z,9.39
2022-09-06T00:32:03.037Z,9.34
2022-09-06T00:33:11.640Z,9.30
2022-09-06T00:34:14.804Z,9.30
2022-09-06T00:35:19.417Z,9.33
2022-09-06T00:36:24.212Z,9.33
2022-09-06T00:37:28.290Z,9.26
2022-09-06T00:38:32.571Z,9.27
2022-09-06T00:39:38.196Z,9.25
2022-09-06T00:40:42.358Z,9.24
2022-09-06T00:41:48.101Z,9.25
2022-09-06T00:42:52.189Z,9.20
2022-09-06T00:43:56.209Z,8.89
2022-09-06T00:45:02.068Z,9.15
2022-09-06T00:46:08.334Z,9.18
2022-09-06T00:47:12.438Z,9.18
2022-09-06T00:48:20.130Z,9.14
2022-09-06T00:49:28.457Z,9.16
2022-09-06T00:50:32.853Z,9.16
2022-09-06T00:51:38.275Z,9.16
2022-09-06T00:52:44.160Z,9.17
2022-09-06T00:53:48.247Z,9.17
2022-09-06T00:54:53.270Z,9.19
2022-09-06T00:55:57.462Z,9.19
2022-09-06T00:57:04.283Z,9.17
2022-09-06T00:58:08.366Z,9.17
2022-09-06T00:59:12.505Z,9.19
2022-09-06T01:00:20.768Z,9.14
2022-09-06T01:01:24.933Z,9.16
2022-09-06T01:02:29.393Z,9.15
2022-09-06T01:03:34.547Z,9.12
2022-09-06T01:04:41.839Z,9.11
2022-09-06T01:05:56.136Z,9.11
2022-09-06T01:07:28.520Z,9.05
2022-09-06T01:08:49.211Z,9.11
2022-09-06T01:10:19.924Z,9.11
2022-09-06T01:11:49.158Z,9.09
2022-09-06T01:13:00.320Z,9.06
2022-09-06T01:14:23.996Z,9.06
2022-09-06T01:15:45.746Z,9.06
2022-09-06T01:16:58.374Z,9.03
2022-09-06T01:18:13.216Z,8.99
2022-09-06T01:19:35.232Z,8.97
2022-09-06T01:20:55.586Z,8.97
2022-09-06T01:22:10.772Z,8.94
2022-09-06T01:23:17.769Z,8.92
2022-09-06T01:24:39.261Z,8.93
2022-09-06T01:26:06.981Z,8.93
2022-09-06T01:27:36.407Z,8.94
2022-09-06T01:28:47.583Z,8.93
2022-09-06T01:29:54.609Z,8.91
2022-09-06T01:31:28.628Z,8.92
2022-09-06T01:32:44.232Z,8.92
2022-09-06T01:34:07.537Z,8.90
2022-09-06T01:35:20.348Z,8.85
2022-09-06T01:36:27.958Z,8.85
2022-09-06T01:37:34.099Z,8.84
2022-09-06T01:38:38.198Z,8.81
2022-09-06T01:39:42.830Z,8.81
2022-09-06T01:40:51.336Z,8.77
2022-09-06T01:42:01.004Z,8.77
2022-09-06T01:43:11.106Z,8.76
2022-09-06T01:44:17.134Z,8.70
2022-09-06T01:45:46.303Z,8.70
2022-09-06T01:47:11.707Z,8.70
2022-09-06T01:48:38.067Z,8.77
2022-09-06T01:49:56.886Z,8.77
2022-09-06T01:51:12.796Z,8.74
2022-09-06T01:52:22.758Z,8.74
2022-09-06T01:53:51.295Z,8.74
2022-09-06T01:55:10.117Z,8.72
2022-09-06T01:56:33.836Z,8.75
2022-09-06T01:57:52.660Z,8.76
2022-09-06T01:59:05.475Z,8.72
2022-09-06T02:00:15.062Z,8.72
2022-09-06T02:01:27.892Z,8.71
2022-09-06T02:02:52.740Z,8.71
2022-09-06T02:04:22.153Z,8.67
2022-09-06T02:05:55.292Z,8.68
2022-09-06T02:07:02.452Z,8.68
2022-09-06T02:08:21.497Z,8.67
2022-09-06T02:09:35.628Z,8.67
2022-09-06T02:10:45.213Z,8.61
2022-09-06T02:11:52.227Z,8.62
2022-09-06T02:12:59.122Z,8.62
2022-09-06T02:14:06.103Z,8.62
2022-09-06T02:15:16.038Z,8.61
2022-09-06T02:16:23.691Z,8.61
2022-09-06T02:17:34.986Z,8.59
2022-09-06T02:18:44.477Z,8.59
2022-09-06T02:20:11.158Z,8.60
2022-09-06T02:21:24.967Z,8.60
2022-09-06T02:22:31.828Z,8.55
2022-09-06T02:23:40.078Z,8.55
2022-09-06T02:24:47.196Z,8.55
2022-09-06T02:26:03.300Z,8.55
2022-09-06T02:27:08.073Z,8.53
2022-09-06T02:28:16.391Z,8.53
2022-09-06T02:29:22.109Z,8.50
2022-09-06T02:30:26.743Z,8.50
2022-09-06T02:31:33.740Z,8.51
2022-09-06T02:32:44.214Z,8.47
2022-09-06T02:33:48.728Z,8.46
2022-09-06T02:34:55.633Z,8.46
2022-09-06T02:36:05.116Z,8.47
2022-09-06T02:37:10.731Z,8.47
2022-09-06T02:38:15.626Z,8.42
2022-09-06T02:39:19.712Z,8.42
2022-09-06T02:40:24.612Z,8.42
2022-09-06T02:41:33.623Z,8.42
2022-09-06T02:42:36.946Z,8.37
2022-09-06T02:43:43.033Z,8.40
2022-09-06T02:44:47.101Z,8.42
2022-09-06T02:45:52.689Z,8.41
2022-09-06T02:46:58.096Z,8.43
2022-09-06T02:48:03.835Z,8.41
2022-09-06T02:49:09.430Z,8.41
2022-09-06T02:50:14.135Z,8.42
2022-09-06T02:51:18.544Z,8.42
2022-09-06T02:52:23.919Z,8.39
2022-09-06T02:53:27.923Z,8.39
2022-09-06T02:54:35.722Z,8.36
2022-09-06T02:55:40.322Z,8.36
2022-09-06T02:56:47.051Z,8.35
2022-09-06T02:57:50.462Z,8.34
2022-09-06T02:58:54.580Z,8.34
2022-09-06T02:59:58.622Z,8.34
2022-09-06T03:01:03.071Z,8.33
2022-09-06T03:02:08.906Z,8.33
2022-09-06T03:03:12.979Z,8.32
2022-09-06T03:04:16.994Z,8.32
2022-09-06T03:05:21.037Z,8.33
2022-09-06T03:06:25.563Z,8.31
2022-09-06T03:07:29.641Z,8.31
2022-09-06T03:08:33.743Z,8.31
2022-09-06T03:09:39.291Z,8.31
2022-09-06T03:10:51.057Z,8.31
2022-09-06T03:11:55.086Z,8.32
2022-09-06T03:12:59.175Z,8.32
2022-09-06T03:14:04.733Z,8.30
2022-09-06T03:15:09.397Z,8.31
2022-09-06T03:16:14.687Z,8.31
2022-09-06T03:17:18.657Z,8.31
2022-09-06T03:18:23.753Z,8.32
2022-09-06T03:19:29.320Z,8.30
2022-09-06T03:20:36.994Z,8.32
2022-09-06T03:21:40.724Z,8.33
2022-09-06T03:22:45.943Z,8.32
2022-09-06T03:23:50.262Z,8.33
2022-09-06T03:24:54.227Z,8.32
2022-09-06T03:25:58.351Z,8.32
2022-09-06T03:27:02.515Z,8.39
2022-09-06T03:28:08.512Z,8.54
2022-09-06T03:29:12.247Z,8.68
2022-09-06T03:30:17.351Z,8.88
2022-09-06T03:31:21.444Z,8.88
2022-09-06T03:32:25.526Z,9.26
2022-09-06T03:33:29.578Z,9.45
2022-09-06T03:34:36.490Z,9.45
2022-09-06T03:35:40.740Z,9.85
2022-09-06T03:36:44.821Z,10.01
2022-09-06T03:37:48.765Z,10.21
2022-09-06T03:38:52.792Z,10.39
2022-09-06T03:39:57.126Z,10.39
2022-09-06T03:41:01.201Z,10.75
2022-09-06T03:42:07.539Z,10.75
2022-09-06T03:43:11.496Z,11.15
2022-09-06T03:44:15.590Z,11.30
2022-09-06T03:45:19.626Z,11.48
2022-09-06T03:46:23.908Z,11.65
2022-09-06T03:47:28.067Z,11.81
2022-09-06T03:48:32.109Z,11.81
2022-09-06T03:49:36.164Z,12.09
2022-09-06T03:50:41.741Z,12.24
2022-09-06T03:51:45.773Z,12.39
2022-09-06T03:52:49.723Z,12.39
2022-09-06T03:53:53.744Z,12.53
2022-09-06T03:54:57.760Z,12.78
2022-09-06T03:56:01.882Z,12.84
2022-09-06T03:57:05.880Z,12.91
2022-09-06T03:58:12.922Z,12.91
2022-09-06T03:59:17.152Z,12.79
2022-09-06T04:00:22.748Z,12.60
2022-09-06T04:01:27.596Z,12.60
2022-09-06T04:02:31.847Z,12.44
2022-09-06T04:03:36.962Z,12.14
2022-09-06T04:04:41.083Z,12.05
2022-09-06T04:05:47.857Z,12.11
2022-09-06T04:06:51.885Z,12.11
2022-09-06T04:07:55.923Z,12.12
2022-09-06T04:09:01.360Z,11.93
2022-09-06T04:10:05.905Z,11.84
2022-09-06T04:11:10.002Z,11.70
2022-09-06T04:12:14.026Z,11.52
2022-09-06T04:13:18.136Z,11.43
2022-09-06T04:14:22.158Z,11.38
2022-09-06T04:15:26.284Z,11.29
2022-09-06T04:16:30.474Z,11.25
2022-09-06T04:17:38.904Z,11.39
2022-09-06T04:18:43.067Z,11.71
2022-09-06T04:19:47.308Z,12.04
2022-09-06T04:20:53.642Z,12.38
2022-09-06T04:21:57.593Z,12.63
2022-09-06T04:23:01.536Z,12.94
2022-09-06T04:24:05.567Z,13.20
2022-09-06T04:25:10.332Z,13.34
2022-09-06T04:26:15.065Z,13.34
2022-09-06T04:27:19.010Z,13.75
2022-09-06T04:28:24.012Z,13.98
2022-09-06T04:29:29.622Z,13.97
2022-09-06T04:30:33.778Z,13.95
2022-09-06T04:31:39.555Z,13.89
2022-09-06T04:32:43.608Z,13.63
2022-09-06T04:33:49.039Z,13.40
2022-09-06T04:34:53.068Z,13.27
2022-09-06T04:35:59.436Z,13.27
2022-09-06T04:37:03.523Z,12.82
2022-09-06T04:38:07.546Z,12.82
2022-09-06T04:39:11.512Z,12.66
2022-09-06T04:40:17.157Z,12.31
2022-09-06T04:41:21.212Z,12.11
2022-09-06T04:42:25.341Z,12.06
2022-09-06T04:43:29.435Z,12.08
2022-09-06T04:44:33.386Z,12.20
2022-09-06T04:45:37.487Z,12.41
2022-09-06T04:46:42.779Z,12.68
2022-09-06T04:47:46.930Z,12.98
2022-09-06T04:48:51.342Z,13.28
2022-09-06T04:49:55.309Z,13.28
2022-09-06T04:50:59.389Z,13.59
2022-09-06T04:52:03.605Z,13.77
2022-09-06T04:53:07.835Z,13.87
2022-09-06T04:54:13.293Z,13.86
2022-09-06T04:55:17.254Z,13.86
2022-09-06T04:56:27.179Z,13.81
2022-09-06T04:57:32.426Z,13.67
2022-09-06T04:58:36.403Z,13.56
2022-09-06T04:59:40.511Z,13.41
2022-09-06T05:00:45.018Z,13.30
2022-09-06T05:01:49.228Z,13.30
2022-09-06T05:02:54.620Z,13.20
2022-09-06T05:03:58.772Z,12.87
2022-09-06T05:05:02.789Z,12.77
2022-09-06T05:06:09.723Z,12.67
2022-09-06T05:07:15.258Z,12.67
2022-09-06T05:08:22.125Z,12.53
2022-09-06T05:09:24.897Z,12.53
2022-09-06T05:10:29.198Z,12.43
2022-09-06T05:11:33.890Z,12.39
2022-09-06T05:12:42.071Z,12.31
2022-09-06T05:13:48.106Z,12.31
2022-09-06T05:14:53.690Z,12.27
2022-09-06T05:16:02.431Z,12.28
2022-09-06T05:17:06.473Z,12.26
2022-09-06T05:18:15.492Z,12.23
2022-09-06T05:19:16.769Z,12.23
2022-09-06T05:20:24.126Z,12.22
2022-09-06T05:21:28.415Z,12.24
2022-09-06T05:22:32.386Z,12.24
2022-09-06T05:23:37.075Z,12.20
2022-09-06T05:24:41.091Z,12.20
2022-09-06T05:25:45.136Z,12.20
2022-09-06T05:26:49.256Z,12.22
2022-09-06T05:27:53.282Z,12.21
2022-09-06T05:28:57.247Z,12.28
2022-09-06T05:30:02.582Z,12.36
2022-09-06T05:31:13.273Z,12.42
2022-09-06T05:32:17.320Z,12.42
2022-09-06T05:33:23.017Z,12.46
2022-09-06T05:34:26.978Z,12.48
2022-09-06T05:35:37.606Z,12.48
2022-09-06T05:36:40.454Z,12.39
2022-09-06T05:37:44.536Z,12.39
2022-09-06T05:38:48.559Z,12.45
2022-09-06T05:39:52.563Z,12.46
2022-09-06T05:40:56.805Z,12.54
2022-09-06T05:42:00.752Z,12.54
2022-09-06T05:43:04.835Z,12.54
2022-09-06T05:44:08.881Z,12.50
2022-09-06T05:45:12.762Z,12.50
2022-09-06T05:46:18.487Z,12.55
2022-09-06T05:47:22.665Z,12.54
2022-09-06T05:48:26.726Z,12.55
2022-09-06T05:49:34.103Z,12.53
2022-09-06T05:50:37.833Z,12.49
2022-09-06T05:51:41.955Z,12.46
2022-09-06T05:52:46.022Z,12.46
2022-09-06T05:53:51.713Z,12.46
2022-09-06T05:54:55.782Z,12.43
2022-09-06T05:55:59.812Z,12.40
2022-09-06T05:57:08.078Z,12.42
2022-09-06T05:58:12.050Z,12.42
2022-09-06T05:59:16.088Z,12.41
2022-09-06T06:00:21.684Z,12.43
2022-09-06T06:01:27.969Z,12.46
2022-09-06T06:02:32.106Z,12.46
2022-09-06T06:03:39.083Z,12.46
2022-09-06T06:04:43.421Z,12.51
2022-09-06T06:05:48.054Z,12.47
2022-09-06T06:06:52.190Z,12.43
2022-09-06T06:07:56.175Z,12.43
2022-09-06T06:09:01.234Z,12.43
2022-09-06T06:10:05.780Z,12.41
2022-09-06T06:11:11.295Z,12.43
2022-09-06T06:12:15.395Z,12.43
2022-09-06T06:13:19.393Z,12.38
2022-09-06T06:14:26.472Z,12.39
2022-09-06T06:15:31.179Z,12.39
2022-09-06T06:16:46.060Z,12.42
2022-09-06T06:17:40.792Z,12.44
2022-09-06T06:18:48.739Z,12.48
2022-09-06T06:19:50.552Z,12.50
2022-09-06T06:21:10.580Z,12.53
2022-09-06T06:22:14.638Z,12.62
2022-09-06T06:23:18.730Z,12.65
2022-09-06T06:24:23.062Z,12.74
2022-09-06T06:25:27.180Z,12.79
2022-09-06T06:26:39.661Z,12.79
2022-09-06T06:27:45.279Z,12.85
2022-09-06T06:28:51.040Z,12.93
2022-09-06T06:29:55.026Z,12.93
2022-09-06T06:30:59.154Z,13.04
2022-09-06T06:32:03.410Z,13.04
2022-09-06T06:33:09.045Z,13.09
2022-09-06T06:34:13.161Z,13.12
2022-09-06T06:35:18.628Z,13.17
2022-09-06T06:36:25.623Z,13.20
2022-09-06T06:37:29.568Z,13.25
2022-09-06T06:38:41.279Z,13.25
2022-09-06T06:39:45.375Z,13.27
2022-09-06T06:40:49.634Z,13.27
2022-09-06T06:41:55.212Z,13.40
2022-09-06T06:42:59.174Z,13.45
2022-09-06T06:44:05.300Z,13.55
2022-09-06T06:45:09.676Z,13.65
2022-09-06T06:46:17.930Z,13.76
2022-09-06T06:47:22.062Z,13.91
2022-09-06T06:48:26.090Z,14.02
2022-09-06T06:49:33.283Z,14.02
2022-09-06T06:50:37.376Z,14.24
2022-09-06T06:51:41.426Z,14.31
2022-09-06T06:52:45.445Z,14.43
2022-09-06T06:53:50.025Z,14.52
2022-09-06T06:54:54.066Z,14.59
2022-09-06T06:55:58.024Z,14.59
2022-09-06T06:57:03.309Z,14.70
2022-09-06T06:58:08.794Z,14.70
2022-09-06T06:59:12.886Z,14.74
2022-09-06T07:00:18.480Z,14.83
2022-09-06T07:01:24.236Z,14.97
2022-09-06T07:02:31.261Z,15.03
2022-09-06T07:03:34.067Z,15.12
2022-09-06T07:04:38.163Z,15.19
2022-09-06T07:07:59.365Z,15.32
2022-09-06T07:09:03.411Z,15.36
2022-09-06T07:11:15.748Z,15.60
2022-09-06T07:12:19.739Z,15.60
2022-09-06T07:13:23.932Z,15.60
2022-09-06T07:14:27.973Z,15.69
2022-09-06T07:15:31.934Z,15.74
2022-09-06T07:16:36.114Z,15.74
2022-09-06T07:17:40.247Z,15.85
2022-09-06T07:18:44.574Z,15.85
2022-09-06T07:22:05.208Z,16.01
2022-09-06T07:24:14.194Z,16.02
2022-09-06T07:25:21.407Z,16.05
2022-09-06T07:26:26.661Z,16.06
2022-09-06T07:28:36.556Z,16.14
2022-09-06T07:29:40.598Z,16.23
2022-09-06T07:30:44.725Z,16.36
2022-09-06T07:32:54.656Z,16.35
2022-09-06T07:33:59.148Z,16.47
2022-09-06T07:35:03.128Z,16.46
2022-09-06T07:36:09.038Z,16.44
2022-09-06T07:37:13.087Z,16.44
2022-09-06T07:38:17.114Z,16.65
2022-09-06T07:39:28.965Z,16.69
2022-09-06T07:43:00.506Z,16.67
2022-09-06T07:44:06.096Z,16.67
2022-09-06T07:45:10.482Z,16.59
2022-09-06T07:46:17.655Z,16.64
2022-09-06T07:48:30.430Z,16.64
2022-09-06T07:49:35.765Z,16.54
2022-09-06T07:50:48.306Z,16.45
2022-09-06T07:51:45.517Z,16.44
2022-09-06T07:54:12.866Z,16.32
2022-09-06T07:55:01.595Z,16.15
2022-09-06T07:56:08.564Z,16.23
2022-09-06T07:57:12.519Z,16.17
2022-09-06T07:58:16.557Z,16.17
2022-09-06T07:59:20.679Z,16.06
2022-09-06T08:00:26.344Z,16.06
2022-09-06T08:01:37.009Z,16.04
2022-09-06T08:02:41.146Z,16.03
2022-09-06T08:03:46.069Z,15.95
2022-09-06T08:04:51.733Z,15.95
2022-09-06T08:06:11.472Z,15.92
2022-09-06T08:09:13.226Z,15.87
2022-09-06T08:10:20.771Z,15.92
2022-09-06T08:11:27.371Z,16.00
2022-09-06T08:12:31.497Z,16.00
2022-09-06T08:13:38.637Z,16.13
2022-09-06T08:14:42.948Z,16.24
2022-09-06T08:15:47.005Z,16.37
2022-09-06T08:16:51.119Z,16.35
2022-09-06T08:17:55.208Z,16.35
2022-09-06T08:19:01.521Z,16.37
2022-09-06T08:20:07.521Z,16.37
2022-09-06T08:21:16.109Z,16.44
2022-09-06T08:22:19.861Z,16.50
2022-09-06T08:23:25.404Z,16.56
2022-09-06T08:24:29.556Z,16.71
2022-09-06T08:25:33.607Z,16.71
2022-09-06T08:26:38.916Z,16.80
2022-09-06T08:27:42.926Z,17.12
2022-09-06T08:28:47.268Z,17.10
2022-09-06T08:29:51.207Z,17.13
2022-09-06T08:30:55.711Z,17.08
2022-09-06T08:31:59.703Z,16.99
2022-09-06T08:33:03.707Z,16.87
2022-09-06T08:34:08.192Z,16.95
2022-09-06T08:35:12.254Z,16.90
2022-09-06T08:36:16.813Z,16.94
2022-09-06T08:37:24.826Z,17.01
2022-09-06T08:38:27.722Z,16.99
2022-09-06T08:39:31.633Z,16.99
2022-09-06T08:40:38.353Z,16.83
2022-09-06T08:41:47.206Z,16.89
2022-09-06T08:42:51.811Z,16.89
2022-09-06T08:45:08.290Z,16.74
2022-09-06T08:46:15.108Z,16.52
2022-09-06T08:47:22.104Z,16.55
2022-09-06T08:48:29.104Z,16.44
2022-09-06T08:49:36.145Z,16.44
2022-09-06T08:50:43.116Z,16.38
2022-09-06T08:52:08.995Z,16.34
2022-09-06T08:53:17.712Z,16.34
2022-09-06T08:54:42.436Z,16.27
2022-09-06T08:59:04.349Z,15.99
2022-09-06T09:02:00.236Z,15.85
2022-09-06T09:03:16.660Z,15.89
2022-09-06T09:05:58.895Z,15.79
2022-09-06T09:07:07.484Z,15.77
2022-09-06T09:08:41.381Z,15.71
2022-09-06T09:09:47.488Z,15.67
2022-09-06T09:10:59.281Z,15.67
2022-09-06T09:12:05.463Z,15.68
2022-09-06T09:13:13.943Z,15.68
2022-09-06T09:14:29.996Z,15.86
2022-09-06T09:15:40.236Z,15.86
2022-09-06T09:16:42.655Z,15.86
2022-09-06T09:17:49.388Z,15.66
2022-09-06T09:18:56.247Z,15.66
2022-09-06T09:20:04.063Z,15.67
2022-09-06T09:21:09.288Z,15.63
2022-09-06T09:22:16.287Z,15.63
2022-09-06T09:23:22.163Z,15.43
2022-09-06T09:24:26.275Z,15.42
2022-09-06T09:25:34.726Z,15.34
2022-09-06T09:26:56.604Z,15.34
2022-09-06T09:28:01.629Z,15.33
2022-09-06T09:29:11.561Z,15.42
2022-09-06T09:31:24.637Z,15.52
2022-09-06T09:32:40.219Z,15.62
2022-09-06T09:33:44.360Z,15.69
2022-09-06T09:34:52.568Z,15.69
2022-09-06T09:35:59.339Z,15.75
2022-09-06T09:38:31.522Z,16.01
2022-09-06T09:39:40.626Z,16.07
2022-09-06T09:41:04.207Z,16.07
2022-09-06T09:50:28.920Z,16.17
2022-09-06T09:51:35.828Z,9.65
2022-09-06T09:52:45.491Z,16.22
2022-09-06T09:53:57.003Z,16.26
2022-09-06T09:55:06.817Z,16.17
2022-09-06T09:56:21.419Z,16.09
2022-09-06T09:57:24.461Z,16.03
2022-09-06T09:58:36.883Z,16.03
2022-09-06T09:59:55.744Z,16.09
2022-09-06T10:01:19.085Z,16.17
2022-09-06T10:02:45.803Z,16.23
2022-09-06T10:05:07.234Z,16.26
2022-09-06T10:07:27.922Z,16.35
2022-09-06T10:08:35.692Z,16.35
2022-09-06T10:09:44.166Z,16.41
2022-09-06T10:10:54.109Z,16.47
2022-09-06T10:12:01.247Z,16.52
2022-09-06T10:13:24.265Z,16.50
2022-09-06T10:14:46.389Z,16.50
2022-09-06T10:15:53.170Z,16.50
2022-09-06T10:16:58.539Z,16.59
2022-09-06T10:18:05.034Z,16.59
2022-09-06T10:19:23.383Z,16.77
2022-09-06T10:20:33.780Z,16.86
2022-09-06T10:21:37.937Z,17.01
2022-09-06T10:22:53.673Z,17.01
2022-09-06T10:25:15.155Z,17.00
2022-09-06T10:26:23.749Z,16.96
2022-09-06T10:27:29.567Z,16.99
2022-09-06T10:28:36.078Z,16.99
2022-09-06T10:29:43.061Z,16.95
2022-09-06T10:30:50.204Z,16.81
2022-09-06T10:32:07.422Z,16.74
2022-09-06T10:33:17.208Z,16.69
2022-09-06T10:34:51.411Z,16.59
2022-09-06T10:35:57.888Z,16.64
2022-09-06T10:37:17.075Z,16.66
2022-09-06T10:38:29.957Z,16.64
2022-09-06T10:39:45.979Z,16.63
2022-09-06T10:40:53.170Z,16.63
2022-09-06T10:42:06.328Z,16.71
2022-09-06T10:43:13.355Z,16.60
2022-09-06T10:44:40.806Z,16.67
2022-09-06T10:45:53.723Z,13.21
2022-09-06T10:47:13.920Z,16.44
2022-09-06T10:48:20.919Z,16.44
2022-09-06T10:49:26.544Z,16.59
2022-09-06T10:50:45.113Z,16.59
2022-09-06T10:52:00.927Z,16.65
2022-09-06T10:53:19.841Z,16.72
2022-09-06T10:54:27.367Z,16.80
2022-09-06T10:55:31.882Z,16.80
2022-09-06T10:56:56.748Z,16.77
2022-09-06T10:58:20.116Z,16.80
2022-09-06T10:59:39.888Z,16.80
2022-09-06T11:00:33.464Z,16.84
2022-09-06T11:01:49.223Z,16.92
2022-09-06T11:05:46.352Z,16.91
2022-09-06T11:06:53.771Z,16.84
2022-09-06T11:09:20.793Z,17.00
2022-09-06T11:10:50.061Z,17.05
2022-09-06T11:11:46.972Z,17.05
2022-09-06T11:12:59.554Z,17.03
2022-09-06T11:14:06.576Z,16.94
2022-09-06T11:15:13.525Z,16.89
2022-09-06T11:16:25.198Z,16.94
2022-09-06T11:17:47.353Z,17.07
2022-09-06T11:19:15.334Z,15.95
2022-09-06T11:20:34.849Z,15.95
2022-09-06T11:22:02.891Z,17.13
2022-09-06T11:23:31.865Z,17.26
2022-09-06T11:24:55.071Z,17.27
2022-09-06T11:26:19.989Z,17.27
2022-09-06T11:27:38.654Z,17.11
2022-09-06T11:28:48.303Z,16.58
2022-09-06T11:29:55.489Z,16.64
2022-09-06T11:31:00.367Z,16.64
2022-09-06T11:32:22.614Z,16.49
2022-09-06T11:33:28.943Z,16.49
2022-09-06T11:34:35.078Z,16.52
2022-09-06T11:35:41.821Z,16.52
2022-09-06T11:36:51.009Z,16.32
2022-09-06T11:38:16.328Z,16.31
2022-09-06T11:40:41.474Z,15.99
2022-09-06T11:41:45.676Z,16.01
2022-09-06T11:42:52.679Z,16.00
2022-09-06T11:43:57.011Z,15.97
2022-09-06T11:45:04.038Z,15.95
2022-09-06T11:46:08.554Z,15.92
2022-09-06T11:47:15.576Z,15.79
2022-09-06T11:48:28.750Z,15.79
2022-09-06T11:49:35.572Z,15.87
2022-09-06T11:50:57.664Z,15.77
2022-09-06T11:52:05.370Z,15.77
2022-09-06T11:53:19.593Z,15.83
2022-09-06T11:54:40.721Z,15.82
2022-09-06T11:55:50.341Z,15.94
2022-09-06T11:57:00.370Z,16.00
2022-09-06T11:58:11.085Z,16.05
2022-09-06T11:59:26.061Z,16.07
2022-09-06T12:00:35.324Z,16.17
2022-09-06T12:01:40.248Z,16.17
2022-09-06T12:02:44.301Z,16.18
2022-09-06T12:04:06.175Z,16.17
2022-09-06T12:05:06.145Z,16.27
2022-09-06T12:06:41.338Z,16.27
2022-09-06T12:08:17.135Z,16.40
2022-09-06T12:09:32.454Z,16.31
2022-09-06T12:10:54.017Z,16.29
2022-09-06T12:11:59.438Z,16.29
2022-09-06T12:13:06.540Z,16.34
2022-09-06T12:14:28.700Z,16.42
2022-09-06T12:15:55.380Z,16.45
2022-09-06T12:17:05.329Z,16.45
2022-09-06T12:18:09.440Z,16.51
2022-09-06T12:19:32.859Z,16.44
2022-09-06T12:20:51.823Z,16.44
2022-09-06T12:21:57.492Z,16.47
2022-09-06T12:23:01.582Z,16.50
2022-09-06T12:24:08.150Z,16.46
2022-09-06T12:25:37.767Z,16.43
2022-09-06T12:26:56.169Z,16.48
2022-09-06T12:28:03.090Z,16.43
2022-09-06T12:29:11.081Z,16.43
2022-09-06T12:30:19.041Z,16.41
2022-09-06T12:31:47.102Z,16.41
2022-09-06T12:32:53.822Z,16.13
2022-09-06T12:34:09.231Z,16.13
2022-09-06T12:36:32.045Z,16.08
2022-09-06T12:38:49.615Z,16.09
2022-09-06T12:39:08.536Z,16.09
2022-09-06T12:40:12.064Z,16.05
2022-09-06T12:41:16.307Z,16.00
2022-09-06T12:42:20.558Z,16.00
2022-09-06T12:43:25.282Z,16.06
2022-09-06T12:44:38.187Z,16.04
2022-09-06T12:45:46.831Z,16.00
2022-09-06T12:46:52.540Z,15.96
2022-09-06T12:48:11.864Z,15.96
2022-09-06T12:49:20.464Z,15.88
2022-09-06T12:50:26.559Z,16.04
2022-09-06T12:51:30.641Z,16.07
2022-09-06T12:52:34.820Z,16.08
2022-09-06T12:53:38.881Z,16.18
2022-09-06T12:54:45.884Z,16.18
2022-09-06T12:55:51.476Z,16.27
2022-09-06T12:56:58.604Z,16.30
2022-09-06T12:58:08.120Z,16.37
2022-09-06T12:59:20.487Z,16.37
2022-09-06T13:00:37.872Z,16.41
2022-09-06T13:01:46.514Z,16.42
2022-09-06T13:02:56.805Z,16.43
2022-09-06T13:04:06.818Z,16.48
2022-09-06T13:05:12.925Z,16.51
2022-09-06T13:06:26.649Z,16.50
2022-09-06T13:07:29.047Z,16.57
2022-09-06T13:08:39.035Z,16.62
2022-09-06T13:09:45.727Z,16.65
2022-09-06T13:10:50.028Z,16.65
2022-09-06T13:11:57.000Z,16.65
2022-09-06T13:13:01.137Z,16.67
2022-09-06T13:14:15.503Z,16.66
2022-09-06T13:15:32.018Z,16.70
2022-09-06T13:16:39.177Z,16.67
2022-09-06T13:17:43.274Z,16.68
2022-09-06T13:18:47.479Z,16.65
2022-09-06T13:19:51.708Z,16.65
2022-09-06T13:21:03.594Z,16.49
2022-09-06T13:22:09.889Z,16.47
2022-09-06T13:23:16.907Z,16.46
2022-09-06T13:24:26.441Z,16.47
2022-09-06T13:25:30.480Z,16.41
2022-09-06T13:26:37.227Z,16.41
2022-09-06T13:27:43.586Z,16.37
2022-09-06T13:28:47.653Z,16.35
2022-09-06T13:30:08.844Z,16.33
2022-09-06T13:31:21.392Z,16.31
2022-09-06T13:32:27.083Z,16.33
2022-09-06T13:33:31.635Z,16.39
2022-09-06T13:34:35.974Z,16.39
2022-09-06T13:35:40.026Z,16.39
2022-09-06T13:36:47.051Z,16.43
2022-09-06T13:37:51.236Z,16.43
2022-09-06T13:38:55.290Z,16.47
2022-09-06T13:39:59.590Z,16.54
2022-09-06T13:41:12.578Z,16.58
2022-09-06T13:42:26.730Z,16.63
2022-09-06T13:43:30.956Z,16.64
2022-09-06T13:44:37.819Z,16.60
2022-09-06T13:45:41.942Z,16.64
2022-09-06T13:46:49.159Z,16.59
2022-09-06T13:48:07.911Z,16.59
2022-09-06T13:49:00.639Z,16.64
2022-09-06T13:50:06.342Z,16.64
2022-09-06T13:51:10.660Z,16.60
2022-09-06T13:52:16.378Z,16.60
2022-09-06T13:53:20.914Z,16.60
2022-09-06T13:54:25.127Z,16.58
2022-09-06T13:55:31.413Z,16.58
2022-09-06T13:56:36.429Z,16.56
2022-09-06T13:57:43.051Z,16.52
2022-09-06T13:58:46.862Z,16.48
2022-09-06T13:59:51.028Z,16.49
2022-09-06T14:00:55.833Z,16.47
2022-09-06T14:02:08.031Z,16.46
2022-09-06T14:03:16.622Z,16.46
2022-09-06T14:04:21.399Z,16.35
2022-09-06T14:05:25.509Z,16.35
2022-09-06T14:06:34.724Z,16.34
2022-09-06T14:07:37.529Z,16.36
2022-09-06T14:09:05.921Z,16.37
2022-09-06T14:09:48.950Z,16.36
2022-09-06T14:10:55.123Z,16.36
2022-09-06T14:11:59.256Z,16.35
2022-09-06T14:13:03.235Z,16.32
2022-09-06T14:14:07.341Z,16.34
2022-09-06T14:15:11.398Z,16.29
2022-09-06T14:16:16.007Z,16.06
2022-09-06T14:17:20.508Z,16.27
2022-09-06T14:18:27.220Z,16.27
2022-09-06T14:19:30.218Z,16.26
2022-09-06T14:20:35.959Z,16.13
2022-09-06T14:21:41.686Z,16.11
2022-09-06T14:22:47.250Z,15.95
2022-09-06T14:23:52.060Z,15.94
2022-09-06T14:24:56.181Z,15.87
2022-09-06T14:26:02.897Z,15.83
2022-09-06T14:27:08.531Z,15.85
2022-09-06T14:28:14.135Z,15.85
2022-09-06T14:29:19.718Z,15.85
2022-09-06T14:30:24.036Z,15.82
2022-09-06T14:31:29.633Z,15.78
2022-09-06T14:32:33.839Z,15.80
2022-09-06T14:33:37.963Z,15.83
2022-09-06T14:34:42.026Z,15.79
2022-09-06T14:35:46.092Z,15.83
2022-09-06T14:36:50.650Z,15.81
2022-09-06T14:37:54.883Z,15.82
2022-09-06T14:39:00.558Z,15.74
2022-09-06T14:40:05.471Z,15.72
2022-09-06T14:41:10.391Z,15.55
2022-09-06T14:42:14.569Z,15.64
2022-09-06T14:43:20.549Z,15.62
2022-09-06T14:44:24.545Z,15.64
2022-09-06T14:45:28.598Z,15.58
2022-09-06T14:46:32.949Z,15.58
2022-09-06T14:47:38.737Z,15.54
2022-09-06T14:48:44.730Z,15.54
2022-09-06T14:49:52.641Z,15.48
2022-09-06T14:51:02.252Z,15.49
2022-09-06T14:52:04.786Z,15.49
2022-09-06T14:53:30.144Z,15.50
2022-09-06T14:54:16.201Z,15.47
2022-09-06T14:55:20.260Z,15.41
2022-09-06T14:56:26.263Z,15.41
2022-09-06T14:57:31.827Z,15.38
2022-09-06T14:58:39.101Z,15.39
2022-09-06T14:59:44.753Z,15.38
2022-09-06T15:00:48.732Z,15.38
2022-09-06T15:01:54.985Z,15.43
2022-09-06T15:03:00.448Z,15.43
2022-09-06T15:04:06.150Z,15.45
2022-09-06T15:05:11.809Z,15.46
2022-09-06T15:06:17.545Z,15.46
2022-09-06T15:07:22.142Z,15.46
2022-09-06T15:08:26.170Z,15.45
2022-09-06T15:09:30.191Z,15.43
2022-09-06T15:10:34.573Z,15.43
2022-09-06T15:11:45.678Z,15.38
2022-09-06T15:12:49.760Z,15.31
2022-09-06T15:13:53.794Z,15.34
2022-09-06T15:14:57.817Z,15.21
2022-09-06T15:16:03.359Z,15.19
2022-09-06T15:17:07.484Z,15.17
2022-09-06T15:18:12.992Z,15.09
2022-09-06T15:19:18.669Z,15.11
2022-09-06T15:20:22.852Z,15.13
2022-09-06T15:21:27.124Z,15.11
2022-09-06T15:22:33.217Z,15.13
2022-09-06T15:23:37.563Z,15.14
2022-09-06T15:24:41.724Z,15.14